Flight Track Log - Related Links

Times and Time Zones

All times are in EDT time to prevent confusion due to time zone crossing. See the ACA1125 flight status page for this flight to view local times or setup timezone preferences in your user account.

Time Position Orientation Groundspeed Altitude Reporting Facility
EDT Latitude Longitude Course Direction KTS MPH feet Rate Location/Type
Sun 03:19:08 PM 43.6833 -79.6333 303° West 30 35 600  Level Toronto Center
Sun 03:20:08 PM 43.6500 -79.6500 200° South 150 173 2,100 1,736 Climbing Toronto Center
Sun 03:21:09 PM 43.6167 -79.7333 241° Southwest 200 230 4,100 2,000 Climbing Toronto Center
Sun 03:22:08 PM 43.6167 -79.8000 270° West 210 242 6,100 2,218 Climbing Toronto Center
Sun 03:23:00 PM 43.9757 -80.3022 303° West  Level FlightAware Approximate
Sun 03:23:08 PM 43.6667 -79.8667 316° Northwest 260 299 8,500  Level Toronto Center
Sun 03:24:00 PM 44.0415 -80.4410 303° West  Level FlightAware Approximate
Sun 03:24:08 PM 43.7167 -79.9500 310° West 280 322 11,000  Level Toronto Center
Sun 03:25:00 PM 44.1073 -80.5800 303° West  Level FlightAware Approximate
Sun 03:25:08 PM 43.7667 -80.0333 310° West 290 334 12,700  Level Toronto Center
Sun 03:26:08 PM 43.8333 -80.1333 313° West 320 368 15,000 1,950 Climbing Toronto Center
Sun 03:27:08 PM 43.9000 -80.2333 313° West 340 391 16,600 1,750 Climbing Toronto Center
Sun 03:28:08 PM 43.9667 -80.3500 308° West 360 414 18,500 1,587 Climbing Toronto Center
Sun 03:29:09 PM 44.0333 -80.4500 313° West 380 437 19,800 1,488 Climbing Toronto Center
Sun 03:30:09 PM 44.1000 -80.5667 309° West 390 449 21,500 1,513 Climbing Toronto Center
Sun 03:31:08 PM 44.1833 -80.6833 315° West 390 449 22,800 1,200 Climbing Toronto Center
Sun 03:32:09 PM 44.2667 -80.8000 315° West 410 472 23,900 1,300 Climbing Toronto Center
Sun 03:33:08 PM 44.3333 -80.9167 309° West 420 483 25,400 1,261 Climbing Toronto Center
Sun 03:34:08 PM 44.4000 -81.0333 309° West 420 483 26,400 950 Climbing Toronto Center
Sun 03:35:08 PM 44.4833 -81.1500 315° West 430 495 27,300 900 Climbing Toronto Center
Sun 03:36:08 PM 44.5667 -81.3000 308° West 440 506 28,200 992 Climbing Toronto Center
Sun 03:37:09 PM 44.6500 -81.4167 315° West 440 506 29,300 1,091 Climbing Toronto Center
Sun 03:38:09 PM 44.7333 -81.5500 311° West 440 506 30,400 1,000 Climbing Toronto Center
Sun 03:39:09 PM 44.8167 -81.6833 311° West 440 506 31,300 950 Climbing Toronto Center
Sun 03:40:09 PM 44.9000 -81.8000 315° West 440 506 32,300 950 Climbing Toronto Center
Sun 03:41:09 PM 44.9833 -81.9500 308° West 440 506 33,200 950 Climbing Toronto Center
Sun 03:42:09 PM 45.0500 -82.0667 309° West 430 495 34,200 750 Climbing Toronto Center
Sun 03:43:09 PM 45.1333 -82.1833 315° West 430 495 34,700 605 Climbing Toronto Center
Sun 03:44:08 PM 45.2167 -82.3000 315° West 430 495 35,400 655 Climbing Toronto Center
Sun 03:45:08 PM 45.3000 -82.4333 312° West 430 495 36,000 300 Climbing Toronto Center
Sun 03:46:08 PM 45.3833 -82.5833 308° West 440 506 36,000  Level Toronto Center
Sun 03:47:08 PM 45.4500 -82.7000 309° West 450 518 36,000  Level Toronto Center
Sun 03:48:08 PM 45.5333 -82.8500 308° West 450 518 36,000  Level Toronto Center
Sun 03:49:09 PM 45.6167 -82.9667 316° Northwest 450 518 36,000  Level Toronto Center
Sun 03:50:09 PM 45.7000 -83.1167 309° West 440 506 36,000  Level Toronto Center
Sun 03:51:08 PM 45.7833 -83.2500 312° West 450 518 36,000  Level Toronto Center
Sun 03:52:09 PM 45.8500 -83.3833 306° West 450 518 36,000  Level Toronto Center
Sun 03:53:09 PM 45.9333 -83.5167 312° West 440 506 36,000  Level Toronto Center
Sun 03:54:09 PM 46.0167 -83.6500 312° West 440 506 36,000  Level Toronto Center
Sun 03:55:09 PM 46.0833 -83.8000 303° West 440 506 36,000  Level Toronto Center
Sun 03:56:09 PM 46.1667 -83.9167 316° Northwest 440 506 36,000  Level Toronto Center
Sun 03:57:09 PM 46.2500 -84.0500 312° West 440 506 36,000  Level Toronto Center
Sun 03:58:09 PM 46.3333 -84.2000 309° West 440 506 36,000  Level Toronto Center
Sun 03:59:09 PM 46.4000 -84.3167 310° West 440 506 36,000  Level Toronto Center
Sun 04:00:09 PM 46.4667 -84.5000 298° West 450 518 36,000  Level Toronto Center
Sun 04:01:09 PM 46.5167 -84.6500 296° West 440 506 36,000  Level Toronto Center
Sun 04:02:09 PM 46.5833 -84.8000 303° West 430 495 36,000  Level Toronto Center
Sun 04:03:09 PM 46.6500 -84.9500 303° West 440 506 36,000 50 Level Toronto Center
Sun 04:04:09 PM 46.7000 -85.1000 296° West 440 506 36,100  Climbing Toronto Center
Sun 04:05:09 PM 46.7667 -85.2500 303° West 440 506 36,000 -50 Descending Toronto Center
Sun 04:06:09 PM 46.8167 -85.4333 292° West 440 506 36,000  Level Toronto Center
Sun 04:07:09 PM 46.8833 -85.5833 303° West 440 506 36,000  Level Toronto Center
Sun 04:08:09 PM 46.9333 -85.7333 296° West 440 506 36,000  Level Toronto Center
Sun 04:09:09 PM 47.0000 -85.8833 303° West 440 506 36,000  Level Toronto Center
Sun 04:10:09 PM 47.0500 -86.0500 294° West 440 506 36,000  Level Toronto Center
Sun 04:11:09 PM 47.1167 -86.2000 303° West 440 506 36,000  Level Toronto Center
Sun 04:12:09 PM 47.1667 -86.3833 292° West 440 506 36,000  Level Toronto Center
Sun 04:13:09 PM 47.2333 -86.5333 303° West 440 506 36,000  Level Toronto Center
Sun 04:14:09 PM 47.2833 -86.6833 296° West 440 506 36,000  Level Toronto Center
Sun 04:15:09 PM 47.3500 -86.8500 301° West 440 506 36,000  Level Toronto Center
Sun 04:16:09 PM 47.4000 -87.0000 296° West 440 506 36,000  Level Toronto Center
Sun 04:17:09 PM 47.4500 -87.1833 292° West 450 518 36,000  Level Toronto Center
Sun 04:18:09 PM 47.5167 -87.3333 303° West 450 518 36,000  Level Toronto Center
Sun 04:19:09 PM 47.5833 -87.5000 301° West 450 518 36,000  Level Toronto Center
Sun 04:20:09 PM 47.6500 -87.6500 303° West 450 518 36,000  Level Toronto Center
Sun 04:21:09 PM 47.7000 -87.8333 292° West 450 518 36,000  Level Toronto Center
Sun 04:22:09 PM 47.7500 -88.0000 294° West 450 518 36,000  Level Toronto Center
Sun 04:23:09 PM 47.8167 -88.1500 304° West 450 518 36,000  Level Toronto Center
Sun 04:24:22 PM 47.8667 -88.3167 294° West 440 506 36,000  Level Winnipeg Center
Sun 04:25:22 PM 47.9333 -88.4833 301° West 440 506 36,000  Level Winnipeg Center
Sun 04:26:22 PM 47.9667 -88.6167 291° West 440 506 36,000  Level Winnipeg Center
Sun 04:27:22 PM 48.0333 -88.8167 297° West 440 506 36,000  Level Winnipeg Center
Sun 04:28:22 PM 48.0833 -88.9500 299° West 440 506 36,000  Level Winnipeg Center
Sun 04:29:22 PM 48.1500 -89.1167 301° West 440 506 36,000  Level Winnipeg Center
Sun 04:30:22 PM 48.1833 -89.2833 287° West 430 495 36,000  Level Winnipeg Center
Sun 04:31:22 PM 48.2500 -89.4333 304° West 430 495 36,000  Level Winnipeg Center
Sun 04:32:22 PM 48.3000 -89.6167 292° West 430 495 36,000  Level Winnipeg Center
Sun 04:33:22 PM 48.3333 -89.7667 289° West 430 495 36,000  Level Winnipeg Center
Sun 04:34:22 PM 48.3833 -89.9333 294° West 430 495 36,000  Level Winnipeg Center
Sun 04:35:22 PM 48.4333 -90.1000 294° West 430 495 36,000  Level Winnipeg Center
Sun 04:36:22 PM 48.4833 -90.2833 292° West 430 495 36,000  Level Winnipeg Center
Sun 04:37:22 PM 48.5333 -90.4500 294° West 430 495 36,000  Level Winnipeg Center
Sun 04:38:22 PM 48.5833 -90.6000 297° West 420 483 36,000  Level Winnipeg Center
Sun 04:39:22 PM 48.6167 -90.7667 287° West 430 495 36,000  Level Winnipeg Center
Sun 04:40:22 PM 48.6667 -90.9333 294° West 430 495 36,000  Level Winnipeg Center
Sun 04:41:22 PM 48.7000 -91.0833 289° West 430 495 36,000  Level Winnipeg Center
Sun 04:42:22 PM 48.7667 -91.2833 297° West 430 495 36,000  Level Winnipeg Center
Sun 04:43:22 PM 48.8000 -91.4333 289° West 430 495 36,000  Level Winnipeg Center
Sun 04:44:22 PM 48.8500 -91.6000 295° West 430 495 36,000  Level Winnipeg Center
Sun 04:45:22 PM 48.8833 -91.7833 286° West 440 506 36,000  Level Winnipeg Center
Sun 04:46:22 PM 48.9500 -91.9500 301° West 440 506 36,000  Level Winnipeg Center
Sun 04:47:22 PM 48.9833 -92.1167 287° West 440 506 36,000  Level Winnipeg Center
Sun 04:48:22 PM 49.0333 -92.3000 293° West 440 506 36,000  Level Winnipeg Center
Sun 04:49:22 PM 49.0667 -92.4667 287° West 440 506 36,000  Level Winnipeg Center
Sun 04:50:22 PM 49.1333 -92.6500 299° West 440 506 36,000  Level Winnipeg Center
Sun 04:51:22 PM 49.1667 -92.8167 287° West 450 518 36,000  Level Winnipeg Center
Sun 04:52:22 PM 49.2000 -93.0167 284° West 450 518 36,000  Level Winnipeg Center
Sun 04:53:22 PM 49.2500 -93.1667 297° West 450 518 36,000  Level Winnipeg Center
Sun 04:54:22 PM 49.3000 -93.3500 293° West 450 518 36,000  Level Winnipeg Center
Sun 04:55:22 PM 49.3500 -93.5500 291° West 450 518 36,000  Level Winnipeg Center
Sun 04:56:22 PM 49.3833 -93.7333 286° West 440 506 36,000  Level Winnipeg Center
Sun 04:57:22 PM 49.4333 -93.9000 295° West 440 506 36,000  Level Winnipeg Center
Sun 04:58:22 PM 49.4667 -94.0833 286° West 440 506 36,000  Level Winnipeg Center
Sun 04:59:22 PM 49.5167 -94.2667 293° West 440 506 36,000  Level Winnipeg Center
Sun 05:00:22 PM 49.5500 -94.4333 287° West 440 506 36,000  Level Winnipeg Center
Sun 05:01:22 PM 49.5833 -94.6167 286° West 440 506 36,000  Level Winnipeg Center
Sun 05:02:22 PM 49.6167 -94.8000 286° West 440 506 36,000  Level Winnipeg Center
Sun 05:03:22 PM 49.6833 -94.9833 299° West 440 506 36,000  Level Winnipeg Center
Sun 05:04:22 PM 49.7167 -95.1833 285° West 450 518 36,000  Level Winnipeg Center
Sun 05:05:22 PM 49.7500 -95.3667 286° West 450 518 36,000  Level Winnipeg Center
Sun 05:06:22 PM 49.7833 -95.5333 287° West 460 529 36,000  Level Winnipeg Center
Sun 05:07:22 PM 49.8167 -95.7167 286° West 460 529 36,000  Level Winnipeg Center
Sun 05:08:22 PM 49.8667 -95.9000 293° West 460 529 36,000  Level Winnipeg Center
Sun 05:09:22 PM 49.9167 -96.1167 290° West 460 529 36,000  Level Winnipeg Center
Sun 05:10:22 PM 49.9500 -96.2833 287° West 460 529 36,000  Level Winnipeg Center
Sun 05:11:22 PM 49.9833 -96.5000 284° West 460 529 36,000  Level Winnipeg Center
Sun 05:12:22 PM 50.0333 -96.6833 293° West 470 541 36,000  Level Winnipeg Center
Sun 05:13:22 PM 50.0667 -96.8833 285° West 470 541 36,000  Level Winnipeg Center
Sun 05:14:22 PM 50.1000 -97.0667 286° West 470 541 36,000  Level Winnipeg Center
Sun 05:15:22 PM 50.1500 -97.2833 290° West 480 552 36,000  Level Winnipeg Center
Sun 05:16:22 PM 50.1833 -97.4667 286° West 480 552 36,000  Level Winnipeg Center
Sun 05:17:22 PM 50.2167 -97.6667 285° West 480 552 36,000  Level Winnipeg Center
Sun 05:18:22 PM 50.2500 -97.8833 284° West 480 552 36,000  Level Winnipeg Center
Sun 05:19:22 PM 50.3000 -98.1000 290° West 480 552 36,000  Level Winnipeg Center
Sun 05:20:22 PM 50.3167 -98.2833 278° West 480 552 36,000  Level Winnipeg Center
Sun 05:21:22 PM 50.3667 -98.4833 291° West 480 552 36,000  Level Winnipeg Center
Sun 05:22:22 PM 50.4000 -98.6667 286° West 480 552 36,000  Level Winnipeg Center
Sun 05:23:22 PM 50.4500 -98.8833 290° West 480 552 36,000  Level Winnipeg Center
Sun 05:24:22 PM 50.5000 -99.1000 290° West 490 564 36,000  Level Winnipeg Center
Sun 05:25:22 PM 50.5500 -99.2833 293° West 490 564 36,000  Level Winnipeg Center
Sun 05:26:22 PM 50.5833 -99.5000 284° West 490 564 36,000  Level Winnipeg Center
Sun 05:27:22 PM 50.6333 -99.6833 293° West 490 564 36,000  Level Winnipeg Center
Sun 05:28:22 PM 50.6833 -99.9000 290° West 500 575 36,000  Level Winnipeg Center
Sun 05:29:22 PM 50.7333 -100.1167 290° West 500 575 36,000  Level Winnipeg Center
Sun 05:30:22 PM 50.7833 -100.3333 290° West 500 575 36,000  Level Winnipeg Center
Sun 05:31:22 PM 50.8333 -100.5167 293° West 500 575 36,000  Level Winnipeg Center
Sun 05:32:22 PM 50.8667 -100.7333 284° West 500 575 36,000  Level Winnipeg Center
Sun 05:33:22 PM 50.9167 -100.9167 293° West 500 575 36,000  Level Winnipeg Center
Sun 05:34:22 PM 50.9667 -101.1333 290° West 500 575 36,000  Level Winnipeg Center
Sun 05:35:22 PM 51.0167 -101.3500 290° West 500 575 36,000  Level Winnipeg Center
Sun 05:36:22 PM 51.0667 -101.5667 290° West 500 575 36,000  Level Winnipeg Center
Sun 05:37:22 PM 51.1000 -101.7667 285° West 500 575 36,000  Level Winnipeg Center
Sun 05:38:22 PM 51.1500 -101.9833 290° West 500 575 36,000  Level Winnipeg Center
Sun 05:39:22 PM 51.1833 -102.2000 284° West 500 575 36,000  Level Winnipeg Center
Sun 05:40:22 PM 51.2333 -102.4000 292° West 500 575 36,000  Level Winnipeg Center
Sun 05:41:22 PM 51.2833 -102.6167 290° West 500 575 36,000  Level Winnipeg Center
Sun 05:42:22 PM 51.3167 -102.8000 286° West 500 575 36,000  Level Winnipeg Center
Sun 05:43:22 PM 51.3833 -103.0333 295° West 500 575 36,000  Level Winnipeg Center
Sun 05:44:22 PM 51.4167 -103.2167 286° West 500 575 36,000  Level Winnipeg Center
Sun 05:45:22 PM 51.4667 -103.4500 289° West 490 564 36,000 -450 Level Winnipeg Center
Sun 05:46:22 PM 51.5000 -103.6667 284° West 490 564 35,100 -1,750 Descending Winnipeg Center
Sun 05:47:22 PM 51.5167 -103.8833 277° West 480 552 32,500 -2,150 Descending Winnipeg Center
Sun 05:48:22 PM 51.5333 -104.0833 278° West 470 541 30,800 -1,800 Descending Winnipeg Center
Sun 05:49:22 PM 51.5833 -104.2667 294° West 460 529 28,900 -2,050 Descending Winnipeg Center
Sun 05:50:22 PM 51.6167 -104.4667 285° West 450 518 26,700 -2,050 Descending Winnipeg Center
Sun 05:51:22 PM 51.6667 -104.6333 296° West 430 495 24,800 -1,950 Descending Winnipeg Center
Sun 05:52:22 PM 51.7167 -104.8167 294° West 400 460 22,800 -1,850 Descending Winnipeg Center
Sun 05:53:22 PM 51.7500 -104.9500 292° West 380 437 21,100 -1,700 Descending Winnipeg Center
Sun 05:54:22 PM 51.7833 -105.1000 290° West 350 403 19,400 -1,750 Descending Winnipeg Center
Sun 05:55:22 PM 51.8167 -105.2333 292° West 330 380 17,600 -1,500 Descending Winnipeg Center
Sun 05:56:22 PM 51.8500 -105.3500 295° West 310 357 16,400 -1,300 Descending Winnipeg Center
Sun 05:57:22 PM 51.8833 -105.5000 290° West 290 334 15,000 -1,350 Descending Winnipeg Center
Sun 05:58:22 PM 51.9167 -105.6167 295° West 280 322 13,700 -1,350 Descending Winnipeg Center
Sun 05:59:22 PM 51.9500 -105.7167 298° West 280 322 12,300 -1,300 Descending Winnipeg Center
Sun 06:00:22 PM 51.9667 -105.8333 283° West 270 311 11,100 -1,250 Descending Winnipeg Center
Sun 06:01:22 PM 52.0000 -105.9500 295° West 260 299 9,800 -1,250 Descending Winnipeg Center
Sun 06:02:22 PM 52.0167 -106.0333 288° West 250 288 8,600 -1,150 Descending Winnipeg Center
Sun 06:03:22 PM 52.0500 -106.1500 295° West 250 288 7,500 -1,150 Descending Winnipeg Center
Sun 06:04:22 PM 52.0833 -106.2500 299° West 250 288 6,300 -1,200 Descending Winnipeg Center
Sun 06:05:22 PM 52.1000 -106.3500 285° West 240 276 5,100 -1,150 Descending Winnipeg Center
Sun 06:06:22 PM 52.1333 -106.4500 299° West 240 276 4,000 -750 Descending Winnipeg Center
Sun 06:07:22 PM 52.1333 -106.5500 270° West 220 253 3,600 -650 Descending Winnipeg Center
Sun 06:08:22 PM 52.1500 -106.6500 285° West 200 230 2,700 -950 Descending Winnipeg Center
Sun 06:09:22 PM 52.1500 -106.7000 270° West 160 184 1,700 -550 Descending Winnipeg Center
Sun 06:10:22 PM 52.1500 -106.7333 270° West 60 69 1,600 -100 Descending Winnipeg Center

Login

Don't have an account? Register now (free) for customized features, flight alerts, and more!